sensor_id;sensor_type;location;lat;lon;timestamp;temperature;humidity
67186;HTU21D;54116;53.518;49.398;2022-11-20T00:00:47;-1.15;118.99
67186;HTU21D;54116;53.518;49.398;2022-11-20T00:03:13;-1.19;118.99
67186;HTU21D;54116;53.518;49.398;2022-11-20T00:05:39;-1.20;118.99
67186;HTU21D;54116;53.518;49.398;2022-11-20T00:08:05;-1.19;118.99
67186;HTU21D;54116;53.518;49.398;2022-11-20T00:10:31;-1.17;118.99
67186;HTU21D;54116;53.518;49.398;2022-11-20T00:12:58;-1.18;118.99
67186;HTU21D;54116;53.518;49.398;2022-11-20T00:15:24;-1.14;118.99
67186;HTU21D;54116;53.518;49.398;2022-11-20T00:17:50;-1.12;118.99
67186;HTU21D;54116;53.518;49.398;2022-11-20T00:20:16;-1.08;118.99
67186;HTU21D;54116;53.518;49.398;2022-11-20T00:22:42;-1.05;118.99
67186;HTU21D;54116;53.518;49.398;2022-11-20T00:25:08;-1.08;118.99
67186;HTU21D;54116;53.518;49.398;2022-11-20T00:27:34;-1.13;118.99
67186;HTU21D;54116;53.518;49.398;2022-11-20T00:30:00;-1.14;118.99
67186;HTU21D;54116;53.518;49.398;2022-11-20T00:32:26;-1.12;118.99
67186;HTU21D;54116;53.518;49.398;2022-11-20T00:34:52;-1.09;118.99
67186;HTU21D;54116;53.518;49.398;2022-11-20T00:37:18;-1.10;118.99
67186;HTU21D;54116;53.518;49.398;2022-11-20T00:39:44;-1.13;118.99
67186;HTU21D;54116;53.518;49.398;2022-11-20T00:42:10;-1.14;118.99
67186;HTU21D;54116;53.518;49.398;2022-11-20T00:44:36;-1.16;118.99
67186;HTU21D;54116;53.518;49.398;2022-11-20T00:47:02;-1.16;118.94
67186;HTU21D;54116;53.518;49.398;2022-11-20T00:49:28;-1.16;118.95
67186;HTU21D;54116;53.518;49.398;2022-11-20T00:51:54;-1.14;118.99
67186;HTU21D;54116;53.518;49.398;2022-11-20T00:54:20;-1.16;118.99
67186;HTU21D;54116;53.518;49.398;2022-11-20T00:56:46;-1.16;118.99
67186;HTU21D;54116;53.518;49.398;2022-11-20T00:59:12;-1.16;118.99
67186;HTU21D;54116;53.518;49.398;2022-11-20T01:01:38;-1.20;118.70
67186;HTU21D;54116;53.518;49.398;2022-11-20T01:04:05;-1.24;118.54
67186;HTU21D;54116;53.518;49.398;2022-11-20T01:06:33;-1.21;118.62
67186;HTU21D;54116;53.518;49.398;2022-11-20T01:09:02;-1.23;118.61
67186;HTU21D;54116;53.518;49.398;2022-11-20T01:11:32;-1.21;118.82
67186;HTU21D;54116;53.518;49.398;2022-11-20T01:13:59;-1.17;118.79
67186;HTU21D;54116;53.518;49.398;2022-11-20T01:16:37;-1.15;118.89
67186;HTU21D;54116;53.518;49.398;2022-11-20T01:19:05;-1.16;118.73
67186;HTU21D;54116;53.518;49.398;2022-11-20T01:21:37;-1.20;118.58
67186;HTU21D;54116;53.518;49.398;2022-11-20T01:24:05;-1.20;118.73
67186;HTU21D;54116;53.518;49.398;2022-11-20T01:26:33;-1.17;118.87
67186;HTU21D;54116;53.518;49.398;2022-11-20T01:29:00;-1.19;118.85
67186;HTU21D;54116;53.518;49.398;2022-11-20T01:31:29;-1.19;118.88
67186;HTU21D;54116;53.518;49.398;2022-11-20T01:33:58;-1.21;118.82
67186;HTU21D;54116;53.518;49.398;2022-11-20T01:36:26;-1.23;118.89
67186;HTU21D;54116;53.518;49.398;2022-11-20T01:38:53;-1.21;118.99
67186;HTU21D;54116;53.518;49.398;2022-11-20T01:41:20;-1.21;118.95
67186;HTU21D;54116;53.518;49.398;2022-11-20T01:44:05;-1.23;118.86
67186;HTU21D;54116;53.518;49.398;2022-11-20T01:46:37;-1.23;118.95
67186;HTU21D;54116;53.518;49.398;2022-11-20T01:51:52;-1.26;118.99
67186;HTU21D;54116;53.518;49.398;2022-11-20T01:54:27;-1.20;118.92
67186;HTU21D;54116;53.518;49.398;2022-11-20T01:56:57;-1.20;118.86
67186;HTU21D;54116;53.518;49.398;2022-11-20T01:59:26;-1.17;118.99
67186;HTU21D;54116;53.518;49.398;2022-11-20T02:01:54;-1.16;118.99
67186;HTU21D;54116;53.518;49.398;2022-11-20T02:04:20;-1.14;118.99
67186;HTU21D;54116;53.518;49.398;2022-11-20T02:07:00;-1.13;118.99
67186;HTU21D;54116;53.518;49.398;2022-11-20T02:09:27;-1.15;118.99
67186;HTU21D;54116;53.518;49.398;2022-11-20T02:11:54;-1.14;118.99
67186;HTU21D;54116;53.518;49.398;2022-11-20T02:14:21;-1.09;118.76
67186;HTU21D;54116;53.518;49.398;2022-11-20T02:16:48;-0.75;118.81
67186;HTU21D;54116;53.518;49.398;2022-11-20T02:21:52;-0.73;118.35
67186;HTU21D;54116;53.518;49.398;2022-11-20T02:24:22;-0.77;118.16
67186;HTU21D;54116;53.518;49.398;2022-11-20T02:27:09;-0.81;118.03
67186;HTU21D;54116;53.518;49.398;2022-11-20T02:32:06;-0.84;117.68
67186;HTU21D;54116;53.518;49.398;2022-11-20T02:34:32;-0.89;117.83
67186;HTU21D;54116;53.518;49.398;2022-11-20T02:36:58;-0.87;117.75
67186;HTU21D;54116;53.518;49.398;2022-11-20T02:39:25;-0.84;117.51
67186;HTU21D;54116;53.518;49.398;2022-11-20T02:41:54;-0.86;117.83
67186;HTU21D;54116;53.518;49.398;2022-11-20T02:44:21;-0.88;117.86
67186;HTU21D;54116;53.518;49.398;2022-11-20T02:46:47;-0.89;117.69
67186;HTU21D;54116;53.518;49.398;2022-11-20T02:49:13;-0.93;117.76
67186;HTU21D;54116;53.518;49.398;2022-11-20T02:51:39;-0.96;117.88
67186;HTU21D;54116;53.518;49.398;2022-11-20T02:54:05;-0.96;117.98
67186;HTU21D;54116;53.518;49.398;2022-11-20T02:56:31;-0.91;118.45
67186;HTU21D;54116;53.518;49.398;2022-11-20T02:58:57;-0.96;118.04
67186;HTU21D;54116;53.518;49.398;2022-11-20T03:01:23;-0.96;118.08
67186;HTU21D;54116;53.518;49.398;2022-11-20T03:03:49;-0.98;117.98
67186;HTU21D;54116;53.518;49.398;2022-11-20T03:06:16;-1.01;118.02
67186;HTU21D;54116;53.518;49.398;2022-11-20T03:08:43;-0.99;118.05
67186;HTU21D;54116;53.518;49.398;2022-11-20T03:11:09;-1.01;118.19
67186;HTU21D;54116;53.518;49.398;2022-11-20T03:13:35;-1.01;118.44
67186;HTU21D;54116;53.518;49.398;2022-11-20T03:16:10;-0.97;118.47
67186;HTU21D;54116;53.518;49.398;2022-11-20T03:18:37;-0.97;118.66
67186;HTU21D;54116;53.518;49.398;2022-11-20T03:21:04;-0.97;118.68
67186;HTU21D;54116;53.518;49.398;2022-11-20T03:23:30;-0.94;118.86
67186;HTU21D;54116;53.518;49.398;2022-11-20T03:26:08;-0.94;118.92
67186;HTU21D;54116;53.518;49.398;2022-11-20T03:28:35;-0.95;118.99
67186;HTU21D;54116;53.518;49.398;2022-11-20T03:31:09;-0.96;118.87
67186;HTU21D;54116;53.518;49.398;2022-11-20T03:33:35;-0.96;118.76
67186;HTU21D;54116;53.518;49.398;2022-11-20T03:36:04;-0.96;118.89
67186;HTU21D;54116;53.518;49.398;2022-11-20T03:38:31;-0.96;118.96
67186;HTU21D;54116;53.518;49.398;2022-11-20T03:41:02;-0.99;118.87
67186;HTU21D;54116;53.518;49.398;2022-11-20T03:43:29;-0.96;118.92
67186;HTU21D;54116;53.518;49.398;2022-11-20T03:45:55;-0.96;118.99
67186;HTU21D;54116;53.518;49.398;2022-11-20T03:48:21;-0.94;118.99
67186;HTU21D;54116;53.518;49.398;2022-11-20T03:50:47;-0.94;118.99
67186;HTU21D;54116;53.518;49.398;2022-11-20T03:53:14;-0.96;118.99
67186;HTU21D;54116;53.518;49.398;2022-11-20T03:55:40;-0.96;118.99
67186;HTU21D;54116;53.518;49.398;2022-11-20T03:58:06;-0.93;118.99
67186;HTU21D;54116;53.518;49.398;2022-11-20T04:00:32;-0.91;118.99
67186;HTU21D;54116;53.518;49.398;2022-11-20T04:02:59;-0.90;118.99
67186;HTU21D;54116;53.518;49.398;2022-11-20T04:05:26;-0.89;118.99
67186;HTU21D;54116;53.518;49.398;2022-11-20T04:07:52;-0.89;118.99
67186;HTU21D;54116;53.518;49.398;2022-11-20T04:10:18;-0.90;118.99
67186;HTU21D;54116;53.518;49.398;2022-11-20T04:12:44;-0.89;118.99
67186;HTU21D;54116;53.518;49.398;2022-11-20T04:15:10;-0.87;118.99
67186;HTU21D;54116;53.518;49.398;2022-11-20T04:17:36;-0.89;118.99
67186;HTU21D;54116;53.518;49.398;2022-11-20T04:20:03;-0.88;118.99
67186;HTU21D;54116;53.518;49.398;2022-11-20T04:22:29;-0.88;118.99
67186;HTU21D;54116;53.518;49.398;2022-11-20T04:24:55;-0.88;118.99
67186;HTU21D;54116;53.518;49.398;2022-11-20T04:27:21;-0.88;118.99
67186;HTU21D;54116;53.518;49.398;2022-11-20T04:29:47;-0.86;118.99
67186;HTU21D;54116;53.518;49.398;2022-11-20T04:32:13;-0.84;118.99
67186;HTU21D;54116;53.518;49.398;2022-11-20T04:34:39;-0.84;118.99
67186;HTU21D;54116;53.518;49.398;2022-11-20T04:37:05;-0.83;118.99
67186;HTU21D;54116;53.518;49.398;2022-11-20T04:39:31;-0.81;118.99
67186;HTU21D;54116;53.518;49.398;2022-11-20T04:41:57;-0.82;118.99
67186;HTU21D;54116;53.518;49.398;2022-11-20T04:44:41;-0.79;118.94
67186;HTU21D;54116;53.518;49.398;2022-11-20T04:47:07;-0.81;118.85
67186;HTU21D;54116;53.518;49.398;2022-11-20T04:49:33;-0.81;118.92
67186;HTU21D;54116;53.518;49.398;2022-11-20T04:51:59;-0.80;118.86
67186;HTU21D;54116;53.518;49.398;2022-11-20T04:54:25;-0.77;118.64
67186;HTU21D;54116;53.518;49.398;2022-11-20T04:56:51;-0.77;118.52
67186;HTU21D;54116;53.518;49.398;2022-11-20T04:59:17;-0.77;118.53
67186;HTU21D;54116;53.518;49.398;2022-11-20T05:01:43;-0.74;118.53
67186;HTU21D;54116;53.518;49.398;2022-11-20T05:04:09;-0.73;118.49
67186;HTU21D;54116;53.518;49.398;2022-11-20T05:06:35;-0.74;118.31
67186;HTU21D;54116;53.518;49.398;2022-11-20T05:09:01;-0.71;118.26
67186;HTU21D;54116;53.518;49.398;2022-11-20T05:11:27;-0.69;118.49
67186;HTU21D;54116;53.518;49.398;2022-11-20T05:13:58;-0.69;118.05
67186;HTU21D;54116;53.518;49.398;2022-11-20T05:16:25;-0.67;118.06
67186;HTU21D;54116;53.518;49.398;2022-11-20T05:18:52;-0.64;117.97
67186;HTU21D;54116;53.518;49.398;2022-11-20T05:21:19;-0.65;117.86
67186;HTU21D;54116;53.518;49.398;2022-11-20T05:23:45;-0.62;117.68
67186;HTU21D;54116;53.518;49.398;2022-11-20T05:26:18;-0.62;117.40
67186;HTU21D;54116;53.518;49.398;2022-11-20T05:28:44;-0.61;117.43
67186;HTU21D;54116;53.518;49.398;2022-11-20T05:31:14;-0.60;117.02
67186;HTU21D;54116;53.518;49.398;2022-11-20T05:33:41;-0.59;116.92
67186;HTU21D;54116;53.518;49.398;2022-11-20T05:36:07;-0.57;116.96
67186;HTU21D;54116;53.518;49.398;2022-11-20T05:38:34;-0.58;116.75
67186;HTU21D;54116;53.518;49.398;2022-11-20T05:41:11;-0.55;116.97
67186;HTU21D;54116;53.518;49.398;2022-11-20T05:43:39;-0.52;117.02
67186;HTU21D;54116;53.518;49.398;2022-11-20T05:46:07;-0.52;116.96
67186;HTU21D;54116;53.518;49.398;2022-11-20T05:48:34;-0.49;117.20
67186;HTU21D;54116;53.518;49.398;2022-11-20T05:51:02;-0.47;117.18
67186;HTU21D;54116;53.518;49.398;2022-11-20T05:53:29;-0.47;116.83
67186;HTU21D;54116;53.518;49.398;2022-11-20T05:56:06;-0.45;116.89
67186;HTU21D;54116;53.518;49.398;2022-11-20T05:58:33;-0.44;117.04
67186;HTU21D;54116;53.518;49.398;2022-11-20T06:04:02;-0.43;116.60
67186;HTU21D;54116;53.518;49.398;2022-11-20T06:06:28;-0.41;116.82
67186;HTU21D;54116;53.518;49.398;2022-11-20T06:08:55;-0.39;116.91
67186;HTU21D;54116;53.518;49.398;2022-11-20T06:11:21;-0.40;117.09
67186;HTU21D;54116;53.518;49.398;2022-11-20T06:13:48;-0.39;116.92
67186;HTU21D;54116;53.518;49.398;2022-11-20T06:16:17;-0.38;116.96
67186;HTU21D;54116;53.518;49.398;2022-11-20T06:18:43;-0.29;117.34
67186;HTU21D;54116;53.518;49.398;2022-11-20T06:21:17;-0.27;117.50
67186;HTU21D;54116;53.518;49.398;2022-11-20T06:23:44;-0.23;117.18
67186;HTU21D;54116;53.518;49.398;2022-11-20T06:26:12;-0.13;117.15
67186;HTU21D;54116;53.518;49.398;2022-11-20T06:28:39;-0.03;116.94
67186;HTU21D;54116;53.518;49.398;2022-11-20T06:31:06;0.03;116.68
67186;HTU21D;54116;53.518;49.398;2022-11-20T06:33:33;0.13;116.53
67186;HTU21D;54116;53.518;49.398;2022-11-20T06:36:00;0.09;115.62
67186;HTU21D;54116;53.518;49.398;2022-11-20T06:38:27;0.15;115.53
67186;HTU21D;54116;53.518;49.398;2022-11-20T06:40:53;0.27;115.67
67186;HTU21D;54116;53.518;49.398;2022-11-20T06:43:21;0.34;115.16
67186;HTU21D;54116;53.518;49.398;2022-11-20T06:45:52;0.28;114.25
67186;HTU21D;54116;53.518;49.398;2022-11-20T06:48:18;0.25;114.07
67186;HTU21D;54116;53.518;49.398;2022-11-20T06:50:44;0.33;114.55
67186;HTU21D;54116;53.518;49.398;2022-11-20T06:53:10;0.39;114.61
67186;HTU21D;54116;53.518;49.398;2022-11-20T06:55:36;0.49;114.39
67186;HTU21D;54116;53.518;49.398;2022-11-20T06:58:02;0.45;113.76
67186;HTU21D;54116;53.518;49.398;2022-11-20T07:00:28;0.40;113.89
67186;HTU21D;54116;53.518;49.398;2022-11-20T07:02:54;0.52;114.34
67186;HTU21D;54116;53.518;49.398;2022-11-20T07:05:20;0.60;114.21
67186;HTU21D;54116;53.518;49.398;2022-11-20T07:07:46;0.61;113.71
67186;HTU21D;54116;53.518;49.398;2022-11-20T07:10:12;0.62;113.52
67186;HTU21D;54116;53.518;49.398;2022-11-20T07:12:38;0.61;113.51
67186;HTU21D;54116;53.518;49.398;2022-11-20T07:15:05;0.51;112.99
67186;HTU21D;54116;53.518;49.398;2022-11-20T07:17:31;0.50;113.58
67186;HTU21D;54116;53.518;49.398;2022-11-20T07:19:57;0.53;113.68
67186;HTU21D;54116;53.518;49.398;2022-11-20T07:22:23;0.59;113.70
67186;HTU21D;54116;53.518;49.398;2022-11-20T07:24:49;0.61;113.47
67186;HTU21D;54116;53.518;49.398;2022-11-20T07:27:15;0.67;113.87
67186;HTU21D;54116;53.518;49.398;2022-11-20T07:29:41;0.71;113.57
67186;HTU21D;54116;53.518;49.398;2022-11-20T07:32:07;0.73;113.61
67186;HTU21D;54116;53.518;49.398;2022-11-20T07:34:33;0.72;113.23
67186;HTU21D;54116;53.518;49.398;2022-11-20T07:36:59;0.63;113.23
67186;HTU21D;54116;53.518;49.398;2022-11-20T07:39:25;0.58;113.59
67186;HTU21D;54116;53.518;49.398;2022-11-20T07:41:51;0.53;113.83
67186;HTU21D;54116;53.518;49.398;2022-11-20T07:44:17;0.51;113.77
67186;HTU21D;54116;53.518;49.398;2022-11-20T07:46:43;0.45;113.87
67186;HTU21D;54116;53.518;49.398;2022-11-20T07:49:09;0.48;114.37
67186;HTU21D;54116;53.518;49.398;2022-11-20T07:51:35;0.43;114.22
67186;HTU21D;54116;53.518;49.398;2022-11-20T07:54:01;0.48;114.94
67186;HTU21D;54116;53.518;49.398;2022-11-20T07:56:27;0.57;115.05
67186;HTU21D;54116;53.518;49.398;2022-11-20T07:58:53;0.59;114.51
67186;HTU21D;54116;53.518;49.398;2022-11-20T08:01:19;0.65;114.48
67186;HTU21D;54116;53.518;49.398;2022-11-20T08:03:45;0.77;114.55
67186;HTU21D;54116;53.518;49.398;2022-11-20T08:06:11;0.88;114.35
67186;HTU21D;54116;53.518;49.398;2022-11-20T08:08:38;0.94;113.41
67186;HTU21D;54116;53.518;49.398;2022-11-20T08:11:05;0.92;113.23
67186;HTU21D;54116;53.518;49.398;2022-11-20T08:13:49;0.96;113.57
67186;HTU21D;54116;53.518;49.398;2022-11-20T08:16:34;1.09;113.09
67186;HTU21D;54116;53.518;49.398;2022-11-20T08:19:00;1.20;113.38
67186;HTU21D;54116;53.518;49.398;2022-11-20T08:21:26;1.19;112.55
67186;HTU21D;54116;53.518;49.398;2022-11-20T08:23:52;1.12;111.78
67186;HTU21D;54116;53.518;49.398;2022-11-20T08:26:18;1.10;112.19
67186;HTU21D;54116;53.518;49.398;2022-11-20T08:28:44;1.21;112.84
67186;HTU21D;54116;53.518;49.398;2022-11-20T08:31:10;1.32;112.79
67186;HTU21D;54116;53.518;49.398;2022-11-20T08:33:36;1.36;112.26
67186;HTU21D;54116;53.518;49.398;2022-11-20T08:36:03;1.34;111.68
67186;HTU21D;54116;53.518;49.398;2022-11-20T08:38:30;1.37;112.11
67186;HTU21D;54116;53.518;49.398;2022-11-20T08:40:58;1.36;111.82
67186;HTU21D;54116;53.518;49.398;2022-11-20T08:43:42;1.49;112.71
67186;HTU21D;54116;53.518;49.398;2022-11-20T08:46:08;1.52;111.85
67186;HTU21D;54116;53.518;49.398;2022-11-20T08:48:34;1.49;111.75
67186;HTU21D;54116;53.518;49.398;2022-11-20T08:51:00;1.41;110.90
67186;HTU21D;54116;53.518;49.398;2022-11-20T08:53:27;1.28;111.82
67186;HTU21D;54116;53.518;49.398;2022-11-20T08:55:53;1.35;112.35
67186;HTU21D;54116;53.518;49.398;2022-11-20T08:58:19;1.32;111.49
67186;HTU21D;54116;53.518;49.398;2022-11-20T09:00:45;1.32;112.74
67186;HTU21D;54116;53.518;49.398;2022-11-20T09:03:11;1.37;112.90
67186;HTU21D;54116;53.518;49.398;2022-11-20T09:05:39;1.33;111.93
67186;HTU21D;54116;53.518;49.398;2022-11-20T09:08:05;1.28;111.89
67186;HTU21D;54116;53.518;49.398;2022-11-20T09:10:31;1.22;112.01
67186;HTU21D;54116;53.518;49.398;2022-11-20T09:12:57;1.13;112.58
67186;HTU21D;54116;53.518;49.398;2022-11-20T09:15:25;1.12;113.51
67186;HTU21D;54116;53.518;49.398;2022-11-20T09:17:55;1.09;113.26
67186;HTU21D;54116;53.518;49.398;2022-11-20T09:20:23;1.08;113.53
67186;HTU21D;54116;53.518;49.398;2022-11-20T09:22:50;0.97;113.42
67186;HTU21D;54116;53.518;49.398;2022-11-20T09:25:17;0.90;112.93
67186;HTU21D;54116;53.518;49.398;2022-11-20T09:27:43;0.84;114.16
67186;HTU21D;54116;53.518;49.398;2022-11-20T09:30:12;0.90;114.60
67186;HTU21D;54116;53.518;49.398;2022-11-20T09:32:39;0.90;114.16
67186;HTU21D;54116;53.518;49.398;2022-11-20T09:35:05;0.77;114.11
67186;HTU21D;54116;53.518;49.398;2022-11-20T09:37:32;0.78;114.06
67186;HTU21D;54116;53.518;49.398;2022-11-20T09:39:58;0.79;114.29
67186;HTU21D;54116;53.518;49.398;2022-11-20T09:51:02;0.99;114.33
67186;HTU21D;54116;53.518;49.398;2022-11-20T09:56:09;1.24;114.03
67186;HTU21D;54116;53.518;49.398;2022-11-20T09:58:54;1.27;113.17
67186;HTU21D;54116;53.518;49.398;2022-11-20T10:01:29;1.25;113.48
67186;HTU21D;54116;53.518;49.398;2022-11-20T10:04:08;1.31;114.11
67186;HTU21D;54116;53.518;49.398;2022-11-20T10:06:44;1.29;113.61
67186;HTU21D;54116;53.518;49.398;2022-11-20T10:11:57;1.14;113.32
67186;HTU21D;54116;53.518;49.398;2022-11-20T10:14:55;1.01;113.03
67186;HTU21D;54116;53.518;49.398;2022-11-20T10:25:00;0.86;115.30
67186;HTU21D;54116;53.518;49.398;2022-11-20T10:30:19;1.10;115.55
67186;HTU21D;54116;53.518;49.398;2022-11-20T10:32:58;1.12;114.54
67186;HTU21D;54116;53.518;49.398;2022-11-20T10:35:38;1.08;113.80
67186;HTU21D;54116;53.518;49.398;2022-11-20T10:38:14;1.01;113.14
67186;HTU21D;54116;53.518;49.398;2022-11-20T10:40:48;0.96;112.88
67186;HTU21D;54116;53.518;49.398;2022-11-20T10:43:21;0.91;113.13
67186;HTU21D;54116;53.518;49.398;2022-11-20T10:46:02;0.96;113.55
67186;HTU21D;54116;53.518;49.398;2022-11-20T10:48:29;0.97;113.16
67186;HTU21D;54116;53.518;49.398;2022-11-20T10:56:19;0.91;112.90
67186;HTU21D;54116;53.518;49.398;2022-11-20T11:01:50;0.71;113.01
67186;HTU21D;54116;53.518;49.398;2022-11-20T11:04:46;0.68;113.77
67186;HTU21D;54116;53.518;49.398;2022-11-20T11:09:50;0.52;114.47
67186;HTU21D;54116;53.518;49.398;2022-11-20T11:12:18;0.50;114.80
67186;HTU21D;54116;53.518;49.398;2022-11-20T11:14:50;0.49;115.38
67186;HTU21D;54116;53.518;49.398;2022-11-20T11:17:29;0.53;115.89
67186;HTU21D;54116;53.518;49.398;2022-11-20T11:22:24;0.50;116.14
67186;HTU21D;54116;53.518;49.398;2022-11-20T11:24:54;0.49;116.28
67186;HTU21D;54116;53.518;49.398;2022-11-20T11:27:20;0.44;116.08
67186;HTU21D;54116;53.518;49.398;2022-11-20T11:29:46;0.38;115.90
67186;HTU21D;54116;53.518;49.398;2022-11-20T11:32:19;0.38;116.34
67186;HTU21D;54116;53.518;49.398;2022-11-20T11:35:02;0.39;116.52
67186;HTU21D;54116;53.518;49.398;2022-11-20T11:37:37;0.36;116.42
67186;HTU21D;54116;53.518;49.398;2022-11-20T11:40:05;0.35;116.29
67186;HTU21D;54116;53.518;49.398;2022-11-20T11:42:33;0.33;116.34
67186;HTU21D;54116;53.518;49.398;2022-11-20T11:45:00;0.31;116.02
67186;HTU21D;54116;53.518;49.398;2022-11-20T11:48:04;0.28;116.09
67186;HTU21D;54116;53.518;49.398;2022-11-20T11:50:25;0.25;115.99
67186;HTU21D;54116;53.518;49.398;2022-11-20T11:55:29;0.20;115.99
67186;HTU21D;54116;53.518;49.398;2022-11-20T12:00:35;0.14;115.93
67186;HTU21D;54116;53.518;49.398;2022-11-20T12:03:15;0.10;115.98
67186;HTU21D;54116;53.518;49.398;2022-11-20T12:05:47;0.09;116.13
67186;HTU21D;54116;53.518;49.398;2022-11-20T12:08:20;0.10;116.39
67186;HTU21D;54116;53.518;49.398;2022-11-20T12:16:05;0.05;116.58
67186;HTU21D;54116;53.518;49.398;2022-11-20T12:18:31;0.04;116.72
67186;HTU21D;54116;53.518;49.398;2022-11-20T12:26:55;0.01;116.76
67186;HTU21D;54116;53.518;49.398;2022-11-20T12:43:41;0.03;117.34
67186;HTU21D;54116;53.518;49.398;2022-11-20T12:46:46;0.01;117.57
67186;HTU21D;54116;53.518;49.398;2022-11-20T12:49:38;0.04;117.79
67186;HTU21D;54116;53.518;49.398;2022-11-20T12:52:14;0.07;117.83
67186;HTU21D;54116;53.518;49.398;2022-11-20T13:02:53;-0.02;118.17
67186;HTU21D;54116;53.518;49.398;2022-11-20T13:05:27;-0.03;118.31
67186;HTU21D;54116;53.518;49.398;2022-11-20T13:07:56;-0.06;118.43
67186;HTU21D;54116;53.518;49.398;2022-11-20T13:19:09;-0.13;118.99
67186;HTU21D;54116;53.518;49.398;2022-11-20T13:21:40;-0.15;118.99
67186;HTU21D;54116;53.518;49.398;2022-11-20T13:24:21;-0.14;118.99
67186;HTU21D;54116;53.518;49.398;2022-11-20T13:27:05;-0.14;118.99
67186;HTU21D;54116;53.518;49.398;2022-11-20T13:29:33;-0.15;118.99
67186;HTU21D;54116;53.518;49.398;2022-11-20T13:34:38;-0.20;118.99
67186;HTU21D;54116;53.518;49.398;2022-11-20T13:37:04;-0.22;118.99
67186;HTU21D;54116;53.518;49.398;2022-11-20T13:39:35;-0.23;118.99
67186;HTU21D;54116;53.518;49.398;2022-11-20T13:42:24;-0.22;118.99
67186;HTU21D;54116;53.518;49.398;2022-11-20T13:45:01;-0.23;118.99
67186;HTU21D;54116;53.518;49.398;2022-11-20T13:47:28;-0.24;118.99
67186;HTU21D;54116;53.518;49.398;2022-11-20T13:49:57;-0.24;118.99
67186;HTU21D;54116;53.518;49.398;2022-11-20T13:52:55;-0.22;118.99
67186;HTU21D;54116;53.518;49.398;2022-11-20T14:01:07;-0.23;118.99
67186;HTU21D;54116;53.518;49.398;2022-11-20T14:03:34;-0.21;118.99
67186;HTU21D;54116;53.518;49.398;2022-11-20T14:06:10;-0.16;118.99
67186;HTU21D;54116;53.518;49.398;2022-11-20T14:08:40;-0.15;118.99
67186;HTU21D;54116;53.518;49.398;2022-11-20T14:11:17;-0.15;118.99
67186;HTU21D;54116;53.518;49.398;2022-11-20T14:16:24;-0.19;118.99
67186;HTU21D;54116;53.518;49.398;2022-11-20T14:18:51;-0.15;118.99
67186;HTU21D;54116;53.518;49.398;2022-11-20T14:21:27;-0.16;118.99
67186;HTU21D;54116;53.518;49.398;2022-11-20T14:24:04;-0.17;118.99
67186;HTU21D;54116;53.518;49.398;2022-11-20T14:26:31;-0.14;118.99
67186;HTU21D;54116;53.518;49.398;2022-11-20T14:28:57;-0.14;118.99
67186;HTU21D;54116;53.518;49.398;2022-11-20T14:31:24;-0.13;118.99
67186;HTU21D;54116;53.518;49.398;2022-11-20T14:33:52;-0.15;118.99
67186;HTU21D;54116;53.518;49.398;2022-11-20T14:36:21;-0.16;118.99
67186;HTU21D;54116;53.518;49.398;2022-11-20T14:38:48;-0.15;118.99
67186;HTU21D;54116;53.518;49.398;2022-11-20T14:41:24;-0.15;118.99
67186;HTU21D;54116;53.518;49.398;2022-11-20T14:43:56;-0.13;118.99
67186;HTU21D;54116;53.518;49.398;2022-11-20T14:46:23;-0.15;118.95
67186;HTU21D;54116;53.518;49.398;2022-11-20T14:48:55;-0.16;118.85
67186;HTU21D;54116;53.518;49.398;2022-11-20T14:51:39;-0.14;118.79
67186;HTU21D;54116;53.518;49.398;2022-11-20T14:56:39;-0.14;118.77
67186;HTU21D;54116;53.518;49.398;2022-11-20T14:59:05;-0.17;118.71
67186;HTU21D;54116;53.518;49.398;2022-11-20T15:01:33;-0.14;118.86
67186;HTU21D;54116;53.518;49.398;2022-11-20T15:04:01;-0.13;118.77
67186;HTU21D;54116;53.518;49.398;2022-11-20T15:06:28;-0.14;118.99
67186;HTU21D;54116;53.518;49.398;2022-11-20T15:08:55;-0.14;118.99
67186;HTU21D;54116;53.518;49.398;2022-11-20T15:11:27;-0.14;118.99
67186;HTU21D;54116;53.518;49.398;2022-11-20T15:13:55;-0.14;118.99
67186;HTU21D;54116;53.518;49.398;2022-11-20T15:16:21;-0.14;118.99
67186;HTU21D;54116;53.518;49.398;2022-11-20T15:18:48;-0.14;118.99
67186;HTU21D;54116;53.518;49.398;2022-11-20T15:21:17;-0.14;118.99
67186;HTU21D;54116;53.518;49.398;2022-11-20T15:23:43;-0.15;118.99
67186;HTU21D;54116;53.518;49.398;2022-11-20T15:26:11;-0.15;118.99
67186;HTU21D;54116;53.518;49.398;2022-11-20T15:28:48;-0.12;118.99
67186;HTU21D;54116;53.518;49.398;2022-11-20T15:31:18;-0.09;118.99
67186;HTU21D;54116;53.518;49.398;2022-11-20T15:33:44;-0.10;118.99
67186;HTU21D;54116;53.518;49.398;2022-11-20T15:36:10;-0.08;118.99
67186;HTU21D;54116;53.518;49.398;2022-11-20T15:38:36;-0.09;118.99
67186;HTU21D;54116;53.518;49.398;2022-11-20T15:41:03;-0.08;118.99
67186;HTU21D;54116;53.518;49.398;2022-11-20T15:43:29;-0.07;118.99
67186;HTU21D;54116;53.518;49.398;2022-11-20T15:46:16;-0.08;118.99
67186;HTU21D;54116;53.518;49.398;2022-11-20T15:48:50;-0.07;118.99
67186;HTU21D;54116;53.518;49.398;2022-11-20T15:51:46;-0.08;118.99
67186;HTU21D;54116;53.518;49.398;2022-11-20T15:54:15;-0.09;118.99
67186;HTU21D;54116;53.518;49.398;2022-11-20T15:56:43;-0.09;118.99
67186;HTU21D;54116;53.518;49.398;2022-11-20T15:59:09;-0.07;118.99
67186;HTU21D;54116;53.518;49.398;2022-11-20T16:01:35;-0.06;118.99
67186;HTU21D;54116;53.518;49.398;2022-11-20T16:04:01;-0.07;118.99
67186;HTU21D;54116;53.518;49.398;2022-11-20T16:06:27;-0.07;118.99
67186;HTU21D;54116;53.518;49.398;2022-11-20T16:08:53;-0.06;118.99
67186;HTU21D;54116;53.518;49.398;2022-11-20T16:11:19;-0.07;118.99
67186;HTU21D;54116;53.518;49.398;2022-11-20T16:13:45;-0.05;118.99
67186;HTU21D;54116;53.518;49.398;2022-11-20T16:16:41;-0.10;118.99
67186;HTU21D;54116;53.518;49.398;2022-11-20T16:19:12;-0.10;118.99
67186;HTU21D;54116;53.518;49.398;2022-11-20T16:21:40;-0.09;118.99
67186;HTU21D;54116;53.518;49.398;2022-11-20T16:24:09;-0.08;118.99
67186;HTU21D;54116;53.518;49.398;2022-11-20T16:26:36;-0.08;118.99
67186;HTU21D;54116;53.518;49.398;2022-11-20T16:29:04;-0.06;118.99
67186;HTU21D;54116;53.518;49.398;2022-11-20T16:31:31;-0.05;118.99
67186;HTU21D;54116;53.518;49.398;2022-11-20T16:34:00;-0.05;118.99
67186;HTU21D;54116;53.518;49.398;2022-11-20T16:36:27;-0.09;118.99
67186;HTU21D;54116;53.518;49.398;2022-11-20T16:38:55;-0.09;118.99
67186;HTU21D;54116;53.518;49.398;2022-11-20T16:41:22;-0.08;118.99
67186;HTU21D;54116;53.518;49.398;2022-11-20T16:43:53;-0.12;118.99
67186;HTU21D;54116;53.518;49.398;2022-11-20T16:46:21;-0.12;118.99
67186;HTU21D;54116;53.518;49.398;2022-11-20T16:51:24;-0.13;118.99
67186;HTU21D;54116;53.518;49.398;2022-11-20T16:53:51;-0.10;118.99
67186;HTU21D;54116;53.518;49.398;2022-11-20T16:56:21;-0.14;118.99